sensor_id;sensor_type;location;lat;lon;timestamp;P1;durP1;ratioP1;P2;durP2;ratioP2
27778;SDS011;30234;48.090;11.464;2022-08-03T00:03:45;2.38;;;0.80;;
27778;SDS011;30234;48.090;11.464;2022-08-03T00:07:46;2.03;;;0.88;;
27778;SDS011;30234;48.090;11.464;2022-08-03T00:11:47;3.83;;;1.00;;
27778;SDS011;30234;48.090;11.464;2022-08-03T00:15:47;0.98;;;0.95;;
27778;SDS011;30234;48.090;11.464;2022-08-03T00:19:48;1.52;;;1.00;;
27778;SDS011;30234;48.090;11.464;2022-08-03T00:23:49;1.05;;;0.90;;
27778;SDS011;30234;48.090;11.464;2022-08-03T00:27:49;3.47;;;1.30;;
27778;SDS011;30234;48.090;11.464;2022-08-03T00:31:50;0.80;;;0.80;;
27778;SDS011;30234;48.090;11.464;2022-08-03T00:35:51;9.27;;;1.00;;
27778;SDS011;30234;48.090;11.464;2022-08-03T00:39:52;0.82;;;0.80;;
27778;SDS011;30234;48.090;11.464;2022-08-03T00:43:52;1.23;;;1.13;;
27778;SDS011;30234;48.090;11.464;2022-08-03T00:47:53;0.95;;;0.85;;
27778;SDS011;30234;48.090;11.464;2022-08-03T00:51:55;1.15;;;1.00;;
27778;SDS011;30234;48.090;11.464;2022-08-03T00:55:56;1.30;;;1.10;;
27778;SDS011;30234;48.090;11.464;2022-08-03T00:59:58;0.68;;;0.68;;
27778;SDS011;30234;48.090;11.464;2022-08-03T01:03:59;2.35;;;1.05;;
27778;SDS011;30234;48.090;11.464;2022-08-03T01:17:12;2.70;;;0.95;;
27778;SDS011;30234;48.090;11.464;2022-08-03T01:21:25;1.73;;;1.20;;
27778;SDS011;30234;48.090;11.464;2022-08-03T01:30:11;1.67;;;0.90;;
27778;SDS011;30234;48.090;11.464;2022-08-03T01:34:13;3.45;;;0.70;;
27778;SDS011;30234;48.090;11.464;2022-08-03T01:38:31;1.38;;;1.00;;
27778;SDS011;30234;48.090;11.464;2022-08-03T01:42:34;1.00;;;0.90;;
27778;SDS011;30234;48.090;11.464;2022-08-03T01:46:37;2.53;;;1.10;;
27778;SDS011;30234;48.090;11.464;2022-08-03T01:50:39;0.88;;;0.88;;
27778;SDS011;30234;48.090;11.464;2022-08-03T01:54:42;2.83;;;1.05;;
27778;SDS011;30234;48.090;11.464;2022-08-03T01:58:44;1.10;;;0.93;;
27778;SDS011;30234;48.090;11.464;2022-08-03T02:02:48;0.80;;;0.80;;
27778;SDS011;30234;48.090;11.464;2022-08-03T02:06:49;2.00;;;1.05;;
27778;SDS011;30234;48.090;11.464;2022-08-03T02:10:54;1.92;;;1.10;;
27778;SDS011;30234;48.090;11.464;2022-08-03T02:14:57;1.40;;;1.20;;
27778;SDS011;30234;48.090;11.464;2022-08-03T02:19:00;1.30;;;0.90;;
27778;SDS011;30234;48.090;11.464;2022-08-03T02:23:04;1.35;;;0.82;;
27778;SDS011;30234;48.090;11.464;2022-08-03T02:27:10;1.20;;;1.00;;
27778;SDS011;30234;48.090;11.464;2022-08-03T02:31:24;2.28;;;0.80;;
27778;SDS011;30234;48.090;11.464;2022-08-03T02:35:28;0.90;;;0.82;;
27778;SDS011;30234;48.090;11.464;2022-08-03T02:39:31;2.80;;;1.05;;
27778;SDS011;30234;48.090;11.464;2022-08-03T02:43:34;0.95;;;0.82;;
27778;SDS011;30234;48.090;11.464;2022-08-03T02:47:38;4.50;;;1.25;;
27778;SDS011;30234;48.090;11.464;2022-08-03T02:51:41;0.80;;;0.80;;
27778;SDS011;30234;48.090;11.464;2022-08-03T02:55:45;5.47;;;1.00;;
27778;SDS011;30234;48.090;11.464;2022-08-03T02:59:48;3.97;;;0.80;;
27778;SDS011;30234;48.090;11.464;2022-08-03T03:03:50;1.35;;;0.82;;
27778;SDS011;30234;48.090;11.464;2022-08-03T03:07:53;0.90;;;0.70;;
27778;SDS011;30234;48.090;11.464;2022-08-03T03:11:55;1.17;;;0.60;;
27778;SDS011;30234;48.090;11.464;2022-08-03T03:15:58;2.63;;;0.90;;
27778;SDS011;30234;48.090;11.464;2022-08-03T03:20:02;2.35;;;1.00;;
27778;SDS011;30234;48.090;11.464;2022-08-03T03:24:05;1.30;;;0.70;;
27778;SDS011;30234;48.090;11.464;2022-08-03T03:28:08;2.05;;;1.08;;
27778;SDS011;30234;48.090;11.464;2022-08-03T03:32:10;5.75;;;1.38;;
27778;SDS011;30234;48.090;11.464;2022-08-03T03:36:12;4.00;;;1.10;;
27778;SDS011;30234;48.090;11.464;2022-08-03T03:40:13;2.65;;;0.95;;
27778;SDS011;30234;48.090;11.464;2022-08-03T03:44:14;1.40;;;1.00;;
27778;SDS011;30234;48.090;11.464;2022-08-03T03:48:15;3.33;;;1.45;;
27778;SDS011;30234;48.090;11.464;2022-08-03T03:52:16;2.92;;;1.13;;
27778;SDS011;30234;48.090;11.464;2022-08-03T03:56:17;3.47;;;1.20;;
27778;SDS011;30234;48.090;11.464;2022-08-03T04:00:18;1.02;;;0.98;;
27778;SDS011;30234;48.090;11.464;2022-08-03T04:04:19;1.98;;;1.20;;
27778;SDS011;30234;48.090;11.464;2022-08-03T04:08:39;1.05;;;0.98;;
27778;SDS011;30234;48.090;11.464;2022-08-03T04:12:59;2.53;;;1.07;;
27778;SDS011;30234;48.090;11.464;2022-08-03T04:17:06;1.23;;;1.13;;
27778;SDS011;30234;48.090;11.464;2022-08-03T04:21:10;1.25;;;1.15;;
27778;SDS011;30234;48.090;11.464;2022-08-03T04:25:13;1.50;;;1.10;;
27778;SDS011;30234;48.090;11.464;2022-08-03T04:29:18;1.42;;;1.08;;
27778;SDS011;30234;48.090;11.464;2022-08-03T04:33:19;1.83;;;0.95;;
27778;SDS011;30234;48.090;11.464;2022-08-03T04:41:45;1.30;;;1.20;;
27778;SDS011;30234;48.090;11.464;2022-08-03T04:45:48;3.35;;;1.25;;
27778;SDS011;30234;48.090;11.464;2022-08-03T04:49:50;3.03;;;1.35;;
27778;SDS011;30234;48.090;11.464;2022-08-03T04:53:51;1.85;;;1.05;;
27778;SDS011;30234;48.090;11.464;2022-08-03T04:57:52;3.08;;;1.13;;
27778;SDS011;30234;48.090;11.464;2022-08-03T05:01:53;1.17;;;0.93;;
27778;SDS011;30234;48.090;11.464;2022-08-03T05:05:54;1.17;;;1.08;;
27778;SDS011;30234;48.090;11.464;2022-08-03T05:09:55;3.13;;;0.90;;
27778;SDS011;30234;48.090;11.464;2022-08-03T05:14:21;1.85;;;0.85;;
27778;SDS011;30234;48.090;11.464;2022-08-03T05:18:25;0.80;;;0.80;;
27778;SDS011;30234;48.090;11.464;2022-08-03T05:22:26;1.88;;;1.00;;
27778;SDS011;30234;48.090;11.464;2022-08-03T05:26:27;3.95;;;0.77;;
27778;SDS011;30234;48.090;11.464;2022-08-03T05:30:28;1.20;;;1.10;;
27778;SDS011;30234;48.090;11.464;2022-08-03T05:34:31;0.82;;;0.80;;
27778;SDS011;30234;48.090;11.464;2022-08-03T05:38:46;1.95;;;1.20;;
27778;SDS011;30234;48.090;11.464;2022-08-03T05:42:46;2.13;;;1.20;;
27778;SDS011;30234;48.090;11.464;2022-08-03T05:47:25;2.20;;;1.10;;
27778;SDS011;30234;48.090;11.464;2022-08-03T05:51:26;2.47;;;1.00;;
27778;SDS011;30234;48.090;11.464;2022-08-03T05:55:27;0.80;;;0.80;;
27778;SDS011;30234;48.090;11.464;2022-08-03T05:59:29;1.42;;;1.17;;
27778;SDS011;30234;48.090;11.464;2022-08-03T06:03:30;1.58;;;0.85;;
27778;SDS011;30234;48.090;11.464;2022-08-03T06:07:39;1.35;;;0.90;;
27778;SDS011;30234;48.090;11.464;2022-08-03T06:11:49;1.00;;;1.00;;
27778;SDS011;30234;48.090;11.464;2022-08-03T06:15:52;0.80;;;0.80;;
27778;SDS011;30234;48.090;11.464;2022-08-03T06:19:53;1.50;;;1.08;;
27778;SDS011;30234;48.090;11.464;2022-08-03T06:23:54;1.13;;;1.02;;
27778;SDS011;30234;48.090;11.464;2022-08-03T06:27:56;1.20;;;0.93;;
27778;SDS011;30234;48.090;11.464;2022-08-03T06:31:58;2.85;;;0.98;;
27778;SDS011;30234;48.090;11.464;2022-08-03T06:35:59;3.05;;;0.98;;
27778;SDS011;30234;48.090;11.464;2022-08-03T06:40:00;1.08;;;1.02;;
27778;SDS011;30234;48.090;11.464;2022-08-03T06:44:05;1.52;;;1.10;;
27778;SDS011;30234;48.090;11.464;2022-08-03T06:48:09;0.80;;;0.80;;
27778;SDS011;30234;48.090;11.464;2022-08-03T06:52:11;1.20;;;0.68;;
27778;SDS011;30234;48.090;11.464;2022-08-03T07:01:26;4.88;;;1.10;;
27778;SDS011;30234;48.090;11.464;2022-08-03T07:05:27;1.75;;;1.10;;
27778;SDS011;30234;48.090;11.464;2022-08-03T07:14:53;3.00;;;1.10;;
27778;SDS011;30234;48.090;11.464;2022-08-03T07:18:55;7.63;;;1.65;;
27778;SDS011;30234;48.090;11.464;2022-08-03T07:28:12;1.45;;;1.10;;
27778;SDS011;30234;48.090;11.464;2022-08-03T07:32:13;3.08;;;1.40;;
27778;SDS011;30234;48.090;11.464;2022-08-03T07:51:00;0.93;;;0.93;;
27778;SDS011;30234;48.090;11.464;2022-08-03T07:59:32;1.00;;;0.82;;
27778;SDS011;30234;48.090;11.464;2022-08-03T08:03:57;0.75;;;0.75;;
27778;SDS011;30234;48.090;11.464;2022-08-03T08:08:29;0.82;;;0.82;;
27778;SDS011;30234;48.090;11.464;2022-08-03T08:17:48;2.30;;;1.23;;
27778;SDS011;30234;48.090;11.464;2022-08-03T08:36:51;1.75;;;1.30;;
27778;SDS011;30234;48.090;11.464;2022-08-03T08:40:54;1.70;;;1.05;;
27778;SDS011;30234;48.090;11.464;2022-08-03T08:44:58;3.63;;;0.85;;
27778;SDS011;30234;48.090;11.464;2022-08-03T08:49:21;1.30;;;1.20;;
27778;SDS011;30234;48.090;11.464;2022-08-03T08:53:27;1.20;;;0.88;;
27778;SDS011;30234;48.090;11.464;2022-08-03T09:01:39;1.02;;;0.85;;
27778;SDS011;30234;48.090;11.464;2022-08-03T09:05:43;0.80;;;0.80;;
27778;SDS011;30234;48.090;11.464;2022-08-03T09:09:57;6.55;;;1.02;;
27778;SDS011;30234;48.090;11.464;2022-08-03T09:14:06;1.75;;;0.95;;
27778;SDS011;30234;48.090;11.464;2022-08-03T09:18:08;2.97;;;0.82;;
27778;SDS011;30234;48.090;11.464;2022-08-03T09:23:07;0.82;;;0.82;;
27778;SDS011;30234;48.090;11.464;2022-08-03T09:27:11;0.90;;;0.90;;
27778;SDS011;30234;48.090;11.464;2022-08-03T09:31:16;1.00;;;0.90;;
27778;SDS011;30234;48.090;11.464;2022-08-03T09:41:39;0.60;;;0.60;;
27778;SDS011;30234;48.090;11.464;2022-08-03T09:46:03;1.77;;;0.65;;
27778;SDS011;30234;48.090;11.464;2022-08-03T10:05:42;0.60;;;0.60;;
27778;SDS011;30234;48.090;11.464;2022-08-03T10:10:00;3.03;;;0.70;;
27778;SDS011;30234;48.090;11.464;2022-08-03T10:19:53;1.80;;;1.10;;
27778;SDS011;30234;48.090;11.464;2022-08-03T10:23:54;0.90;;;0.80;;
27778;SDS011;30234;48.090;11.464;2022-08-03T10:28:10;0.57;;;0.57;;
27778;SDS011;30234;48.090;11.464;2022-08-03T10:36:58;3.45;;;1.13;;
27778;SDS011;30234;48.090;11.464;2022-08-03T10:41:04;1.27;;;1.10;;
27778;SDS011;30234;48.090;11.464;2022-08-03T10:49:27;0.85;;;0.70;;
27778;SDS011;30234;48.090;11.464;2022-08-03T10:59:06;0.68;;;0.68;;
27778;SDS011;30234;48.090;11.464;2022-08-03T11:03:11;0.70;;;0.70;;
27778;SDS011;30234;48.090;11.464;2022-08-03T11:11:57;2.53;;;0.63;;
27778;SDS011;30234;48.090;11.464;2022-08-03T11:16:30;1.70;;;1.00;;
27778;SDS011;30234;48.090;11.464;2022-08-03T11:20:43;0.57;;;0.57;;
27778;SDS011;30234;48.090;11.464;2022-08-03T11:24:55;0.85;;;0.85;;
27778;SDS011;30234;48.090;11.464;2022-08-03T11:29:25;1.88;;;0.90;;
27778;SDS011;30234;48.090;11.464;2022-08-03T11:39:25;1.17;;;0.50;;
27778;SDS011;30234;48.090;11.464;2022-08-03T11:49:14;1.27;;;1.00;;
27778;SDS011;30234;48.090;11.464;2022-08-03T11:58:45;0.82;;;0.82;;
27778;SDS011;30234;48.090;11.464;2022-08-03T12:02:59;0.93;;;0.70;;
27778;SDS011;30234;48.090;11.464;2022-08-03T12:07:16;0.70;;;0.70;;
27778;SDS011;30234;48.090;11.464;2022-08-03T12:12:00;1.08;;;0.77;;
27778;SDS011;30234;48.090;11.464;2022-08-03T12:16:03;1.65;;;1.00;;
27778;SDS011;30234;48.090;11.464;2022-08-03T12:20:55;0.70;;;0.70;;
27778;SDS011;30234;48.090;11.464;2022-08-03T12:25:37;3.22;;;1.00;;
27778;SDS011;30234;48.090;11.464;2022-08-03T12:30:06;1.73;;;1.00;;
27778;SDS011;30234;48.090;11.464;2022-08-03T12:38:53;1.42;;;0.93;;
27778;SDS011;30234;48.090;11.464;2022-08-03T12:42:57;1.30;;;0.85;;
27778;SDS011;30234;48.090;11.464;2022-08-03T12:46:59;0.80;;;0.80;;
27778;SDS011;30234;48.090;11.464;2022-08-03T12:51:14;0.70;;;0.70;;
27778;SDS011;30234;48.090;11.464;2022-08-03T12:55:41;0.80;;;0.77;;
27778;SDS011;30234;48.090;11.464;2022-08-03T13:09:50;1.02;;;0.70;;
27778;SDS011;30234;48.090;11.464;2022-08-03T13:14:06;0.55;;;0.55;;
27778;SDS011;30234;48.090;11.464;2022-08-03T13:18:15;0.70;;;0.70;;
27778;SDS011;30234;48.090;11.464;2022-08-03T13:22:23;1.13;;;0.85;;
27778;SDS011;30234;48.090;11.464;2022-08-03T13:26:45;1.23;;;0.77;;
27778;SDS011;30234;48.090;11.464;2022-08-03T13:31:06;2.97;;;0.90;;
27778;SDS011;30234;48.090;11.464;2022-08-03T13:35:23;0.68;;;0.68;;
27778;SDS011;30234;48.090;11.464;2022-08-03T13:39:24;0.63;;;0.63;;
27778;SDS011;30234;48.090;11.464;2022-08-03T13:43:29;0.80;;;0.80;;
27778;SDS011;30234;48.090;11.464;2022-08-03T13:47:30;1.30;;;0.93;;
27778;SDS011;30234;48.090;11.464;2022-08-03T13:51:35;1.75;;;0.80;;
27778;SDS011;30234;48.090;11.464;2022-08-03T13:56:03;1.13;;;1.00;;
27778;SDS011;30234;48.090;11.464;2022-08-03T14:00:05;1.85;;;0.88;;
27778;SDS011;30234;48.090;11.464;2022-08-03T14:04:07;0.95;;;0.68;;
27778;SDS011;30234;48.090;11.464;2022-08-03T14:08:11;0.80;;;0.80;;
27778;SDS011;30234;48.090;11.464;2022-08-03T14:12:12;1.23;;;0.90;;
27778;SDS011;30234;48.090;11.464;2022-08-03T14:16:22;1.10;;;0.80;;
27778;SDS011;30234;48.090;11.464;2022-08-03T14:20:23;0.88;;;0.88;;
27778;SDS011;30234;48.090;11.464;2022-08-03T14:24:35;1.23;;;1.02;;
27778;SDS011;30234;48.090;11.464;2022-08-03T14:28:39;2.50;;;0.80;;
27778;SDS011;30234;48.090;11.464;2022-08-03T14:32:40;0.90;;;0.90;;
27778;SDS011;30234;48.090;11.464;2022-08-03T14:36:41;1.17;;;0.95;;
27778;SDS011;30234;48.090;11.464;2022-08-03T14:40:42;8.00;;;1.00;;
27778;SDS011;30234;48.090;11.464;2022-08-03T14:44:46;1.85;;;0.90;;
27778;SDS011;30234;48.090;11.464;2022-08-03T14:48:50;0.90;;;0.90;;
27778;SDS011;30234;48.090;11.464;2022-08-03T14:52:51;2.85;;;0.90;;
27778;SDS011;30234;48.090;11.464;2022-08-03T14:56:52;0.82;;;0.82;;
27778;SDS011;30234;48.090;11.464;2022-08-03T15:00:53;0.90;;;0.90;;
27778;SDS011;30234;48.090;11.464;2022-08-03T15:04:55;1.20;;;0.90;;
27778;SDS011;30234;48.090;11.464;2022-08-03T15:08:56;1.20;;;1.10;;
27778;SDS011;30234;48.090;11.464;2022-08-03T15:12:57;3.22;;;0.95;;
27778;SDS011;30234;48.090;11.464;2022-08-03T15:17:00;1.02;;;0.93;;
27778;SDS011;30234;48.090;11.464;2022-08-03T15:21:21;1.30;;;0.90;;
27778;SDS011;30234;48.090;11.464;2022-08-03T15:25:24;2.72;;;0.93;;
27778;SDS011;30234;48.090;11.464;2022-08-03T15:29:38;1.70;;;1.00;;
27778;SDS011;30234;48.090;11.464;2022-08-03T15:33:39;1.20;;;1.10;;
27778;SDS011;30234;48.090;11.464;2022-08-03T15:37:40;1.17;;;1.08;;
27778;SDS011;30234;48.090;11.464;2022-08-03T15:41:41;2.50;;;0.95;;
27778;SDS011;30234;48.090;11.464;2022-08-03T15:45:57;1.20;;;0.90;;
27778;SDS011;30234;48.090;11.464;2022-08-03T15:49:58;4.43;;;1.00;;
27778;SDS011;30234;48.090;11.464;2022-08-03T16:04:37;2.15;;;1.20;;
27778;SDS011;30234;48.090;11.464;2022-08-03T16:08:39;0.65;;;0.65;;
27778;SDS011;30234;48.090;11.464;2022-08-03T16:13:10;1.30;;;1.02;;
27778;SDS011;30234;48.090;11.464;2022-08-03T16:17:11;1.25;;;0.95;;
27778;SDS011;30234;48.090;11.464;2022-08-03T16:21:23;3.55;;;1.20;;
27778;SDS011;30234;48.090;11.464;2022-08-03T16:25:24;0.90;;;0.88;;
27778;SDS011;30234;48.090;11.464;2022-08-03T16:29:25;1.83;;;0.75;;
27778;SDS011;30234;48.090;11.464;2022-08-03T16:34:11;1.27;;;1.08;;
27778;SDS011;30234;48.090;11.464;2022-08-03T16:38:12;1.60;;;1.08;;
27778;SDS011;30234;48.090;11.464;2022-08-03T16:42:18;1.75;;;1.35;;
27778;SDS011;30234;48.090;11.464;2022-08-03T16:46:44;2.50;;;0.77;;
27778;SDS011;30234;48.090;11.464;2022-08-03T16:50:44;1.17;;;1.05;;
27778;SDS011;30234;48.090;11.464;2022-08-03T16:54:54;1.38;;;1.20;;
27778;SDS011;30234;48.090;11.464;2022-08-03T16:58:55;1.88;;;1.38;;
27778;SDS011;30234;48.090;11.464;2022-08-03T17:03:17;1.20;;;1.10;;
27778;SDS011;30234;48.090;11.464;2022-08-03T17:07:58;1.27;;;1.17;;
27778;SDS011;30234;48.090;11.464;2022-08-03T17:12:12;2.75;;;1.00;;
27778;SDS011;30234;48.090;11.464;2022-08-03T17:16:16;1.60;;;0.82;;
27778;SDS011;30234;48.090;11.464;2022-08-03T17:20:18;2.72;;;1.05;;
27778;SDS011;30234;48.090;11.464;2022-08-03T17:24:33;1.70;;;1.20;;
27778;SDS011;30234;48.090;11.464;2022-08-03T17:28:40;1.90;;;0.97;;
27778;SDS011;30234;48.090;11.464;2022-08-03T17:32:45;2.38;;;1.15;;
27778;SDS011;30234;48.090;11.464;2022-08-03T17:36:47;2.10;;;1.35;;
27778;SDS011;30234;48.090;11.464;2022-08-03T17:40:48;4.25;;;1.70;;
27778;SDS011;30234;48.090;11.464;2022-08-03T17:44:50;4.60;;;1.48;;
27778;SDS011;30234;48.090;11.464;2022-08-03T17:48:52;3.13;;;1.52;;
27778;SDS011;30234;48.090;11.464;2022-08-03T17:52:56;1.50;;;0.98;;
27778;SDS011;30234;48.090;11.464;2022-08-03T18:01:54;2.45;;;1.45;;
27778;SDS011;30234;48.090;11.464;2022-08-03T18:06:19;2.83;;;1.40;;
27778;SDS011;30234;48.090;11.464;2022-08-03T18:10:22;2.72;;;1.20;;
27778;SDS011;30234;48.090;11.464;2022-08-03T18:14:29;2.35;;;1.17;;
27778;SDS011;30234;48.090;11.464;2022-08-03T18:18:45;2.58;;;1.50;;
27778;SDS011;30234;48.090;11.464;2022-08-03T18:22:52;1.60;;;1.30;;
27778;SDS011;30234;48.090;11.464;2022-08-03T18:26:54;3.03;;;1.50;;
27778;SDS011;30234;48.090;11.464;2022-08-03T18:30:56;1.65;;;1.08;;
27778;SDS011;30234;48.090;11.464;2022-08-03T18:34:59;1.70;;;1.25;;
27778;SDS011;30234;48.090;11.464;2022-08-03T18:39:03;3.47;;;1.70;;
27778;SDS011;30234;48.090;11.464;2022-08-03T18:43:04;3.38;;;2.15;;
27778;SDS011;30234;48.090;11.464;2022-08-03T18:51:25;1.50;;;1.40;;
27778;SDS011;30234;48.090;11.464;2022-08-03T18:55:29;1.90;;;1.60;;
27778;SDS011;30234;48.090;11.464;2022-08-03T19:03:51;5.40;;;1.43;;
27778;SDS011;30234;48.090;11.464;2022-08-03T19:07:58;2.88;;;1.40;;
27778;SDS011;30234;48.090;11.464;2022-08-03T19:12:16;2.33;;;1.25;;
27778;SDS011;30234;48.090;11.464;2022-08-03T19:16:33;1.75;;;1.50;;
27778;SDS011;30234;48.090;11.464;2022-08-03T19:20:37;1.60;;;1.50;;
27778;SDS011;30234;48.090;11.464;2022-08-03T19:24:39;1.90;;;1.70;;
27778;SDS011;30234;48.090;11.464;2022-08-03T19:28:41;3.78;;;2.00;;
27778;SDS011;30234;48.090;11.464;2022-08-03T19:32:42;3.30;;;2.13;;
27778;SDS011;30234;48.090;11.464;2022-08-03T19:36:43;2.75;;;2.45;;
27778;SDS011;30234;48.090;11.464;2022-08-03T19:40:47;5.57;;;3.03;;
27778;SDS011;30234;48.090;11.464;2022-08-03T19:45:03;2.42;;;2.10;;
27778;SDS011;30234;48.090;11.464;2022-08-03T19:49:10;3.60;;;1.80;;
27778;SDS011;30234;48.090;11.464;2022-08-03T19:53:14;6.80;;;1.67;;
27778;SDS011;30234;48.090;11.464;2022-08-03T19:57:15;3.83;;;2.17;;
27778;SDS011;30234;48.090;11.464;2022-08-03T20:01:18;5.10;;;2.45;;
27778;SDS011;30234;48.090;11.464;2022-08-03T20:05:19;8.68;;;3.97;;
27778;SDS011;30234;48.090;11.464;2022-08-03T20:09:19;5.13;;;3.35;;
27778;SDS011;30234;48.090;11.464;2022-08-03T20:13:20;5.03;;;2.72;;
27778;SDS011;30234;48.090;11.464;2022-08-03T20:17:21;4.20;;;2.10;;
27778;SDS011;30234;48.090;11.464;2022-08-03T20:21:23;3.10;;;2.40;;
27778;SDS011;30234;48.090;11.464;2022-08-03T20:25:30;4.03;;;1.55;;
27778;SDS011;30234;48.090;11.464;2022-08-03T20:29:40;3.13;;;1.90;;
27778;SDS011;30234;48.090;11.464;2022-08-03T20:33:48;2.03;;;1.33;;
27778;SDS011;30234;48.090;11.464;2022-08-03T20:37:48;3.65;;;1.60;;
27778;SDS011;30234;48.090;11.464;2022-08-03T20:41:49;1.38;;;1.20;;
27778;SDS011;30234;48.090;11.464;2022-08-03T20:45:50;2.22;;;1.40;;
27778;SDS011;30234;48.090;11.464;2022-08-03T20:49:51;3.67;;;1.50;;
27778;SDS011;30234;48.090;11.464;2022-08-03T20:53:52;3.60;;;1.42;;
27778;SDS011;30234;48.090;11.464;2022-08-03T20:57:54;2.55;;;1.33;;
27778;SDS011;30234;48.090;11.464;2022-08-03T21:01:55;3.08;;;1.65;;
27778;SDS011;30234;48.090;11.464;2022-08-03T21:05:56;2.28;;;1.48;;
27778;SDS011;30234;48.090;11.464;2022-08-03T21:10:05;4.93;;;1.75;;
27778;SDS011;30234;48.090;11.464;2022-08-03T21:14:08;3.33;;;1.30;;
27778;SDS011;30234;48.090;11.464;2022-08-03T21:18:19;5.05;;;1.50;;
27778;SDS011;30234;48.090;11.464;2022-08-03T21:22:21;4.53;;;1.70;;
27778;SDS011;30234;48.090;11.464;2022-08-03T21:26:25;3.78;;;1.40;;
27778;SDS011;30234;48.090;11.464;2022-08-03T21:30:27;1.95;;;1.42;;
27778;SDS011;30234;48.090;11.464;2022-08-03T21:34:29;5.55;;;1.48;;
27778;SDS011;30234;48.090;11.464;2022-08-03T21:38:30;3.25;;;1.80;;
27778;SDS011;30234;48.090;11.464;2022-08-03T21:42:31;4.57;;;1.40;;
27778;SDS011;30234;48.090;11.464;2022-08-03T21:46:34;1.70;;;1.50;;
27778;SDS011;30234;48.090;11.464;2022-08-03T21:50:37;6.20;;;3.22;;
27778;SDS011;30234;48.090;11.464;2022-08-03T21:54:41;4.18;;;1.52;;
27778;SDS011;30234;48.090;11.464;2022-08-03T21:58:46;2.25;;;1.58;;
27778;SDS011;30234;48.090;11.464;2022-08-03T22:02:53;1.95;;;1.35;;
27778;SDS011;30234;48.090;11.464;2022-08-03T22:06:56;5.82;;;2.25;;
27778;SDS011;30234;48.090;11.464;2022-08-03T22:10:57;2.85;;;1.60;;
27778;SDS011;30234;48.090;11.464;2022-08-03T22:14:58;1.58;;;1.48;;
27778;SDS011;30234;48.090;11.464;2022-08-03T22:19:01;4.47;;;1.60;;
27778;SDS011;30234;48.090;11.464;2022-08-03T22:23:03;2.13;;;1.63;;
27778;SDS011;30234;48.090;11.464;2022-08-03T22:27:05;4.18;;;1.30;;
27778;SDS011;30234;48.090;11.464;2022-08-03T22:31:25;6.47;;;1.73;;
27778;SDS011;30234;48.090;11.464;2022-08-03T22:35:26;2.88;;;1.38;;
27778;SDS011;30234;48.090;11.464;2022-08-03T22:39:27;1.83;;;1.58;;
27778;SDS011;30234;48.090;11.464;2022-08-03T22:43:29;1.83;;;1.40;;
27778;SDS011;30234;48.090;11.464;2022-08-03T22:47:35;2.40;;;1.52;;
27778;SDS011;30234;48.090;11.464;2022-08-03T22:51:39;2.45;;;1.63;;
27778;SDS011;30234;48.090;11.464;2022-08-03T22:55:40;6.97;;;1.73;;
27778;SDS011;30234;48.090;11.464;2022-08-03T22:59:42;8.23;;;1.63;;
27778;SDS011;30234;48.090;11.464;2022-08-03T23:03:44;2.40;;;1.65;;
27778;SDS011;30234;48.090;11.464;2022-08-03T23:07:52;3.17;;;1.88;;
27778;SDS011;30234;48.090;11.464;2022-08-03T23:11:54;2.13;;;1.60;;
27778;SDS011;30234;48.090;11.464;2022-08-03T23:15:56;2.13;;;1.75;;
27778;SDS011;30234;48.090;11.464;2022-08-03T23:20:05;4.07;;;1.88;;
27778;SDS011;30234;48.090;11.464;2022-08-03T23:24:08;1.73;;;1.58;;
27778;SDS011;30234;48.090;11.464;2022-08-03T23:28:08;1.60;;;1.50;;
27778;SDS011;30234;48.090;11.464;2022-08-03T23:32:15;2.83;;;1.83;;
27778;SDS011;30234;48.090;11.464;2022-08-03T23:36:19;5.75;;;1.85;;
27778;SDS011;30234;48.090;11.464;2022-08-03T23:40:24;3.90;;;1.85;;
27778;SDS011;30234;48.090;11.464;2022-08-03T23:44:29;1.73;;;1.13;;
27778;SDS011;30234;48.090;11.464;2022-08-03T23:48:33;4.07;;;1.58;;
